Portada
METAR-TAF:

METAR-TAF

Aeroports :

RAF

Boulmer, Anglaterra

latitud: 55-25-19N, longitud: 1-36-12W, altitud: 24 m

Observació

L'informe es va fer fa 31 minuts, a les 16:50 UTC
Vent 11 kt del Sud/Sud-Oest
Temperatura 9°C
Humitat 87%
Pressió 1000 hPa
Visibilitat 10 km o més

METAR: EGQM 071650Z AUTO 20011KT 9999 OVC050/// 09/07 Q1000 RERA

Hora: 17:21 (17:21 UTC)


TAF: manca

Observacions i pronòstics meteorològics de més de 4000 aeroports (METAR i TAF).

Les estacions disponibles són els punts grocs i vermells al mapa.

Posi el ratolí al punt desitjat per veure el nom de l'estació.

Feu clic per veure les observacions i els pronòstics meteorològics.

Per canviar el mapa: feu clic els botons verds amb una creu de color negre per apropar; al botó verd amb un guió per allunyar la imatge; o en les fletxes verdes per a mapes adjacents.


METAR-TAF: